Time;durP1;ratioP1;P1;durP2;ratioP2;P2;SDS_P1;SDS_P2;PMS_P1;PMS_P2;Temp;Humidity;BMP_temperature;BMP_pressure;BME280_temperature;BME280_humidity;BME280_pressure;Samples;Min_cycle;Max_cycle;Signal;HPM_P1;HPM_P2
2021/06/28 00:01:04;;;;;;;;;;;21.30;88.60;;;;;;5095932;28;20372;-86
2021/06/28 00:03:29;;;;;;;6.25;5.22;;;21.20;90.60;;;;;;5077615;28;19933;-85
2021/06/28 00:05:56;;;;;;;6.90;6.20;;;21.20;88.20;;;;;;5095490;28;20032;-86
2021/06/28 00:08:22;;;;;;;6.63;5.93;;;21.10;88.90;;;;;;5094339;28;20469;-86
2021/06/28 00:10:49;;;;;;;6.63;5.80;;;21.10;89.10;;;;;;5095733;28;20024;-85
2021/06/28 00:13:15;;;;;;;6.95;6.25;;;21.10;89.60;;;;;;5077292;28;20035;-86
2021/06/28 00:15:41;;;;;;;7.68;6.88;;;21.10;89.80;;;;;;5077295;28;20020;-86
2021/06/28 00:18:11;;;;;;;6.93;6.18;;;21.10;90.00;;;;;;5094332;28;20046;-85
2021/06/28 00:20:37;;;;;;;;;;;21.10;90.30;;;;;;5077775;28;20020;-85
2021/06/28 00:23:03;;;;;;;9.95;6.65;;;21.10;91.40;;;;;;5095027;28;19907;-87
2021/06/28 00:25:29;;;;;;;8.20;6.57;;;21.10;90.00;;;;;;5101377;28;20080;-86
2021/06/28 00:27:55;;;;;;;7.03;6.25;;;21.10;90.10;;;;;;5097398;28;20474;-86
2021/06/28 00:30:23;;;;;;;7.30;6.45;;;21.10;90.10;;;;;;5096994;28;20114;-86
2021/06/28 00:32:50;;;;;;;7.45;6.63;;;21.20;90.20;;;;;;5097303;28;20031;-86
2021/06/28 00:35:18;;;;;;;7.68;6.55;;;21.20;90.20;;;;;;5115490;28;20081;-86
2021/06/28 00:37:45;;;;;;;7.93;6.78;;;21.30;90.20;;;;;;5115562;28;20020;-86
2021/06/28 00:40:13;;;;;;;6.43;5.72;;;21.30;90.20;;;;;;5115678;28;20024;-85
2021/06/28 00:42:40;;;;;;;7.57;6.05;;;21.30;90.20;;;;;;5097169;28;20059;-85
2021/06/28 00:45:36;;;;;;;7.25;6.45;;;21.30;90.20;;;;;;5114751;28;20028;-84
2021/06/28 00:48:10;;;;;;;7.30;6.13;;;21.40;90.60;;;;;;5094541;28;20039;-82
2021/06/28 00:50:39;;;;;;;7.50;6.00;;;21.40;90.10;;;;;;5115526;28;20026;-84
2021/06/28 00:53:11;;;;;;;6.45;5.75;;;21.40;90.00;;;;;;5115056;28;20059;-83
2021/06/28 00:55:38;;;;;;;7.03;6.28;;;21.40;89.50;;;;;;5114560;28;20111;-83
2021/06/28 00:58:04;;;;;;;5.97;5.38;;;21.40;89.40;;;;;;5096814;28;20031;-83
2021/06/28 01:00:30;;;;;;;6.07;5.40;;;21.30;89.20;;;;;;5096846;28;20035;-84
2021/06/28 01:02:58;;;;;;;6.55;5.38;;;21.30;89.30;;;;;;5096525;28;20023;-83
2021/06/28 01:05:26;;;;;;;5.65;5.05;;;21.20;89.40;;;;;;5114586;28;20032;-84
2021/06/28 01:07:52;;;;;;;6.15;5.20;;;21.20;89.50;;;;;;5096219;28;20070;-84
2021/06/28 01:10:19;;;;;;;6.35;5.55;;;21.20;89.60;;;;;;5096496;28;20051;-84
2021/06/28 01:12:47;;;;;;;6.15;5.35;;;21.20;89.50;;;;;;5096279;28;20024;-85
2021/06/28 01:15:14;;;;;;;5.85;4.80;;;21.10;89.40;;;;;;5114611;28;20023;-83
2021/06/28 01:17:41;;;;;;;5.80;4.82;;;21.00;89.40;;;;;;5114349;28;20019;-83
2021/06/28 01:20:11;;;;;;;5.13;4.50;;;21.00;89.50;;;;;;5096436;28;20031;-84
2021/06/28 01:22:39;;;;;;;6.85;4.75;;;20.90;90.00;;;;;;5096926;28;20401;-83
2021/06/28 01:25:08;;;;;;;7.22;5.05;;;20.90;89.90;;;;;;5096384;28;20035;-83
2021/06/28 01:27:34;;;;;;;6.93;5.30;;;20.80;90.00;;;;;;5096172;28;20031;-82
2021/06/28 01:30:00;;;;;;;6.32;5.15;;;20.80;90.20;;;;;;5114599;28;20534;-84
2021/06/28 01:32:26;;;;;;;5.30;4.72;;;20.70;90.30;;;;;;5096156;28;20073;-84
2021/06/28 01:34:52;;;;;;;5.68;5.07;;;20.70;90.30;;;;;;5114398;28;20030;-83
2021/06/28 01:37:18;;;;;;;7.25;5.20;;;20.70;90.50;;;;;;5096122;28;20024;-83
2021/06/28 01:39:44;;;;;;;7.60;5.65;;;20.70;90.60;;;;;;5096179;28;20457;-83
2021/06/28 01:42:10;;;;;;;5.80;5.15;;;20.70;90.60;;;;;;5096029;28;20114;-84
2021/06/28 01:44:35;;;;;;;6.57;5.50;;;20.60;90.60;;;;;;5114119;28;20023;-83
2021/06/28 01:47:01;;;;;;;6.47;5.20;;;20.60;90.60;;;;;;5095959;28;20051;-84
2021/06/28 01:49:27;;;;;;;7.50;5.25;;;20.70;90.60;;;;;;5114068;28;20350;-84
2021/06/28 01:51:53;;;;;;;5.90;5.07;;;20.60;90.60;;;;;;5095968;28;20035;-84
2021/06/28 01:54:18;;;;;;;6.45;5.50;;;20.70;90.70;;;;;;5096029;28;20024;-83
2021/06/28 01:56:44;;;;;;;7.28;5.05;;;20.70;90.70;;;;;;5095920;28;20065;-84
2021/06/28 01:59:10;;;;;;;6.38;5.53;;;20.70;90.60;;;;;;5095898;28;20473;-83
2021/06/28 02:01:35;;;;;;;7.95;5.90;;;20.70;90.90;;;;;;5114245;28;20457;-83
2021/06/28 02:04:01;;;;;;;7.60;6.10;;;20.70;90.70;;;;;;5095666;28;20031;-83
2021/06/28 02:06:27;;;;;;;7.93;5.68;;;20.70;90.70;;;;;;5114050;28;20034;-83
2021/06/28 02:08:54;;;;;;;7.18;5.75;;;20.70;90.70;;;;;;5100053;28;20045;-82
2021/06/28 02:11:20;;;;;;;6.45;5.43;;;20.70;90.60;;;;;;5118441;28;20061;-83
2021/06/28 02:13:45;;;;;;;6.80;6.07;;;20.70;90.60;;;;;;5117979;28;20055;-83
2021/06/28 02:16:11;;;;;;;7.38;6.05;;;20.70;90.60;;;;;;5118189;28;20028;-83
2021/06/28 02:18:37;;;;;;;6.88;5.82;;;20.70;90.50;;;;;;5117870;28;20031;-82
2021/06/28 02:21:03;;;;;;;8.05;6.07;;;20.70;90.50;;;;;;5099800;28;20059;-84
2021/06/28 02:23:32;;;;;;;6.07;5.43;;;20.70;90.60;;;;;;5118131;28;20019;-84
2021/06/28 02:25:58;;;;;;;6.25;5.47;;;20.70;90.60;;;;;;5117999;28;20031;-84
2021/06/28 02:28:25;;;;;;;7.03;5.70;;;20.80;90.70;;;;;;5117958;28;20028;-85
2021/06/28 02:30:52;;;;;;;6.22;5.55;;;20.80;90.60;;;;;;5099629;28;20028;-84
2021/06/28 02:33:18;;;;;;;6.72;5.18;;;20.80;90.60;;;;;;5099077;28;20023;-84
2021/06/28 02:35:44;;;;;;;6.57;5.20;;;20.80;90.60;;;;;;5118056;28;20033;-84
2021/06/28 02:38:09;;;;;;;6.70;5.70;;;20.80;90.60;;;;;;5117795;28;20032;-84
2021/06/28 02:40:35;;;;;;;6.97;5.57;;;20.80;90.60;;;;;;5099414;28;20447;-84
2021/06/28 02:43:01;;;;;;;6.30;5.63;;;20.70;90.60;;;;;;5117771;28;20030;-84
2021/06/28 02:45:26;;;;;;;6.10;5.50;;;20.80;90.70;;;;;;5096601;28;20151;-84
2021/06/28 02:47:52;;;;;;;7.40;5.93;;;20.80;90.70;;;;;;5099154;28;20564;-84
2021/06/28 02:50:19;;;;;;;6.30;5.35;;;20.80;90.80;;;;;;5117773;28;20473;-84
2021/06/28 02:52:44;;;;;;;6.97;5.88;;;20.80;90.80;;;;;;5120375;28;20068;-84
2021/06/28 02:55:11;;;;;;;7.90;6.55;;;20.90;90.90;;;;;;5119979;28;20028;-83
2021/06/28 02:57:38;;;;;;;7.85;6.60;;;20.90;90.90;;;;;;5099426;28;20479;-83
2021/06/28 03:00:16;;;;;;;8.13;6.10;;;21.00;90.90;;;;;;5100282;28;20019;-83
2021/06/28 03:02:42;;;;;;;7.32;6.30;;;21.10;90.70;;;;;;5099615;28;20461;-83
2021/06/28 03:05:10;;;;;;;7.05;6.10;;;21.20;90.60;;;;;;5117541;28;20418;-83
2021/06/28 03:07:36;;;;;;;6.80;6.00;;;21.20;90.30;;;;;;5099525;28;20066;-83
2021/06/28 03:10:07;;;;;;;6.28;5.63;;;21.20;90.20;;;;;;5099236;28;20031;-83
2021/06/28 03:12:33;;;;;;;6.57;5.65;;;21.30;90.20;;;;;;5117189;28;20111;-83
2021/06/28 03:14:59;;;;;;;7.90;6.63;;;21.40;90.10;;;;;;5116840;28;20048;-84
2021/06/28 03:17:25;;;;;;;9.18;7.65;;;21.50;90.00;;;;;;5116806;28;20126;-84
2021/06/28 03:19:52;;;;;;;7.68;6.75;;;21.50;90.00;;;;;;5098486;28;20397;-83
2021/06/28 03:22:18;;;;;;;7.60;6.80;;;21.60;89.70;;;;;;5098425;28;20077;-83
2021/06/28 03:24:45;;;;;;;8.80;7.18;;;21.70;89.40;;;;;;5117024;28;20035;-84
2021/06/28 03:27:10;;;;;;;7.78;6.97;;;21.80;89.10;;;;;;5098380;28;20453;-83
2021/06/28 03:29:36;;;;;;;8.00;6.53;;;21.80;88.50;;;;;;5116543;28;20024;-83
2021/06/28 03:32:03;;;;;;;11.02;8.13;;;21.90;88.30;;;;;;5116522;28;20461;-83
2021/06/28 03:34:29;;;;;;;8.43;7.53;;;22.00;87.90;;;;;;5116777;28;20375;-83
2021/06/28 03:36:54;;;;;;;7.85;7.03;;;22.00;87.70;;;;;;5098363;28;20023;-84
2021/06/28 03:39:20;;;;;;;7.93;6.90;;;22.00;87.50;;;;;;5098609;28;20448;-84
2021/06/28 03:41:47;;;;;;;6.88;6.15;;;22.10;87.00;;;;;;5097750;28;20480;-83
2021/06/28 03:44:13;;;;;;;9.00;6.22;;;22.10;86.80;;;;;;5116247;28;20039;-84
2021/06/28 03:46:39;;;;;;;7.03;6.22;;;22.10;86.50;;;;;;5098257;28;20405;-84
2021/06/28 03:49:05;;;;;;;7.70;6.32;;;22.10;86.10;;;;;;5116753;28;20080;-85
2021/06/28 03:51:31;;;;;;;6.70;5.75;;;22.10;85.80;;;;;;5116718;28;20030;-85
2021/06/28 03:53:56;;;;;;;6.32;5.60;;;22.10;85.60;;;;;;5098855;28;20024;-84
2021/06/28 03:56:22;;;;;;;6.10;5.50;;;22.10;85.60;;;;;;5099040;28;20035;-85
2021/06/28 03:58:48;;;;;;;6.40;5.57;;;22.10;85.60;;;;;;5116605;28;20350;-83
2021/06/28 04:01:14;;;;;;;7.30;5.78;;;22.20;85.60;;;;;;5098127;28;20423;-84
2021/06/28 04:03:40;;;;;;;7.30;6.60;;;22.20;85.30;;;;;;5097940;28;20024;-84
2021/06/28 04:06:08;;;;;;;6.40;5.70;;;22.20;84.90;;;;;;5115723;28;20023;-83
2021/06/28 04:08:35;;;;;;;7.22;5.93;;;22.20;85.00;;;;;;5097942;28;20119;-83
2021/06/28 04:11:02;;;;;;;7.65;6.50;;;22.20;85.10;;;;;;5116056;28;20449;-83
2021/06/28 04:13:27;;;;;;;7.88;6.78;;;22.20;84.70;;;;;;5115967;28;20051;-84
2021/06/28 04:15:53;;;;;;;8.00;7.03;;;22.30;84.60;;;;;;5097563;28;20063;-84
2021/06/28 04:18:19;;;;;;;7.53;6.72;;;22.30;84.30;;;;;;5097915;28;20023;-83
2021/06/28 04:20:45;;;;;;;7.53;6.50;;;22.40;83.80;;;;;;5097631;28;20023;-83
2021/06/28 04:23:11;;;;;;;6.57;5.88;;;22.50;83.30;;;;;;5115813;28;20043;-84
2021/06/28 04:25:37;;;;;;;8.45;6.60;;;22.60;82.80;;;;;;5116130;28;20104;-82
2021/06/28 04:28:03;;;;;;;6.28;5.03;;;22.60;82.30;;;;;;5115718;28;20518;-82
2021/06/28 04:30:29;;;;;;;6.30;5.10;;;22.60;82.40;;;;;;5080468;28;20035;-82
2021/06/28 04:32:55;;;;;;;5.72;5.13;;;22.70;82.70;;;;;;5115681;28;20027;-84
2021/06/28 04:35:23;;;;;;;5.72;5.00;;;22.70;82.70;;;;;;5097410;28;20072;-84
2021/06/28 04:37:50;;;;;;;5.82;4.93;;;22.80;82.30;;;;;;5115176;28;20081;-85
2021/06/28 04:40:19;;;;;;;5.90;4.95;;;22.90;81.50;;;;;;5097034;28;20027;-84
2021/06/28 04:42:46;;;;;;;5.47;4.70;;;22.90;81.10;;;;;;5114688;28;20028;-84
2021/06/28 04:45:14;;;;;;;5.55;4.78;;;22.90;80.90;;;;;;5115314;28;20039;-84
2021/06/28 04:47:46;;;;;;;5.10;4.47;;;22.90;80.50;;;;;;5096857;28;20453;-85
2021/06/28 04:50:13;;;;;;;6.43;4.70;;;23.00;80.30;;;;;;5096617;28;20023;-84
2021/06/28 04:52:40;;;;;;;4.90;4.32;;;22.90;80.30;;;;;;5114808;28;20118;-84
2021/06/28 04:55:09;;;;;;;5.53;4.47;;;22.90;80.40;;;;;;5115086;28;20027;-84
2021/06/28 04:57:35;;;;;;;5.40;4.45;;;23.00;80.50;;;;;;5115084;28;20055;-85
2021/06/28 05:00:03;;;;;;;5.70;5.10;;;23.10;80.30;;;;;;5096962;28;20051;-83
2021/06/28 05:02:32;;;;;;;6.25;5.30;;;23.10;79.90;;;;;;5114915;28;20024;-86
2021/06/28 05:04:57;;;;;;;6.10;5.50;;;23.20;79.30;;;;;;5096567;28;20020;-84
2021/06/28 05:07:23;;;;;;;5.70;4.97;;;23.20;79.20;;;;;;5096329;28;20429;-85
2021/06/28 05:09:49;;;;;;;5.72;5.13;;;23.30;79.10;;;;;;5096330;28;20028;-85
2021/06/28 05:12:15;;;;;;;6.20;5.60;;;23.30;78.90;;;;;;5114334;28;20113;-84
2021/06/28 05:14:41;;;;;;;6.18;5.20;;;23.40;78.70;;;;;;5114546;28;20024;-84
2021/06/28 05:17:09;;;;;;;5.90;5.30;;;23.50;78.70;;;;;;5114209;28;20517;-85
2021/06/28 05:19:35;;;;;;;6.10;5.50;;;23.60;78.60;;;;;;5114387;28;20039;-85
2021/06/28 05:22:01;;;;;;;7.05;5.53;;;23.60;78.30;;;;;;5114470;28;20024;-84
2021/06/28 05:24:27;;;;;;;6.40;5.80;;;23.80;77.90;;;;;;5114613;28;20027;-83
2021/06/28 05:26:52;;;;;;;5.72;5.15;;;23.80;77.30;;;;;;5114207;28;20465;-83
2021/06/28 05:29:18;;;;;;;6.38;5.72;;;23.70;77.20;;;;;;5096625;28;20027;-83
2021/06/28 05:31:44;;;;;;;7.10;6.18;;;23.70;76.80;;;;;;5114791;28;20059;-83
2021/06/28 05:34:11;;;;;;;7.38;6.18;;;23.70;76.80;;;;;;5114476;28;20537;-83
2021/06/28 05:36:38;;;;;;;7.47;6.57;;;23.70;76.80;;;;;;5095502;28;20027;-83
2021/06/28 05:39:05;;;;;;;7.97;6.95;;;23.70;76.70;;;;;;5114211;28;20019;-84
2021/06/28 05:41:31;;;;;;;6.85;6.15;;;23.60;76.60;;;;;;5114023;28;20024;-83
2021/06/28 05:43:57;;;;;;;7.72;6.07;;;23.70;76.60;;;;;;5114055;28;20027;-83
2021/06/28 05:46:23;;;;;;;5.93;5.32;;;23.70;76.40;;;;;;5113858;28;20060;-85
2021/06/28 05:48:49;;;;;;;6.05;4.90;;;23.70;76.40;;;;;;5113731;28;20028;-82
2021/06/28 05:51:18;;;;;;;5.53;4.90;;;23.70;76.30;;;;;;5113713;28;20028;-83
2021/06/28 05:53:44;;;;;;;6.18;5.03;;;23.80;76.00;;;;;;5095683;28;20023;-84
2021/06/28 05:56:10;;;;;;;6.50;4.85;;;23.90;76.20;;;;;;5091934;28;20035;-84
2021/06/28 05:58:36;;;;;;;8.55;5.15;;;24.00;76.30;;;;;;5113742;28;20019;-84
2021/06/28 06:01:02;;;;;;;6.13;5.10;;;24.00;75.80;;;;;;5095812;28;20028;-84
2021/06/28 06:03:27;;;;;;;5.10;4.60;;;24.20;75.80;;;;;;5095462;28;20020;-84
2021/06/28 06:05:54;;;;;;;8.15;5.22;;;24.30;75.50;;;;;;5094971;28;20032;-85
2021/06/28 06:08:23;;;;;;;5.85;4.90;;;24.50;75.00;;;;;;5093476;28;20397;-84
2021/06/28 06:10:50;;;;;;;5.88;4.80;;;24.50;74.40;;;;;;5092041;28;20028;-84
2021/06/28 06:13:16;;;;;;;5.50;4.70;;;24.60;74.10;;;;;;5092149;28;20040;-83
2021/06/28 06:15:42;;;;;;;7.63;6.07;;;24.70;74.20;;;;;;5095488;28;20028;-84
2021/06/28 06:18:08;;;;;;;5.82;5.22;;;24.90;73.60;;;;;;5095491;28;20028;-83
2021/06/28 06:20:34;;;;;;;6.28;5.13;;;24.90;73.00;;;;;;5095287;28;20028;-83
2021/06/28 06:23:00;;;;;;;5.38;4.88;;;25.10;72.90;;;;;;5095447;28;20073;-84
2021/06/28 06:25:25;;;;;;;6.18;5.40;;;25.20;72.40;;;;;;5091756;28;20115;-83
2021/06/28 06:27:51;;;;;;;5.50;4.75;;;25.30;71.80;;;;;;5091798;28;20032;-84
2021/06/28 06:30:17;;;;;;;5.75;5.13;;;25.40;71.30;;;;;;5092054;28;20511;-83
2021/06/28 06:32:43;;;;;;;5.70;5.10;;;25.30;70.70;;;;;;5093258;28;20076;-85
2021/06/28 06:35:09;;;;;;;6.13;5.20;;;25.30;70.70;;;;;;5091901;28;20043;-85
2021/06/28 06:37:35;;;;;;;4.82;4.32;;;25.40;70.50;;;;;;5091872;28;20029;-84
2021/06/28 06:40:00;;;;;;;6.47;5.82;;;25.40;70.40;;;;;;5091811;28;20111;-85
2021/06/28 06:42:26;;;;;;;7.05;5.82;;;25.50;70.10;;;;;;5093246;28;20474;-86
2021/06/28 06:44:52;;;;;;;7.55;5.38;;;25.60;69.30;;;;;;5091608;28;20153;-83
2021/06/28 06:47:20;;;;;;;5.88;5.28;;;25.50;68.70;;;;;;5091457;28;20063;-83
2021/06/28 06:49:45;;;;;;;6.72;5.72;;;25.50;68.60;;;;;;5093157;28;20062;-84
2021/06/28 06:52:11;;;;;;;6.60;5.00;;;25.50;68.70;;;;;;5091730;28;20056;-84
2021/06/28 06:54:37;;;;;;;6.05;4.80;;;25.50;68.10;;;;;;5095143;28;20024;-84
2021/06/28 06:57:03;;;;;;;4.40;4.00;;;25.50;68.10;;;;;;5095486;28;20469;-84
2021/06/28 06:59:28;;;;;;;5.38;4.50;;;25.50;68.00;;;;;;5096601;28;20032;-84
2021/06/28 07:01:54;;;;;;;4.65;4.25;;;25.60;68.00;;;;;;5096298;28;20020;-84
2021/06/28 07:04:20;;;;;;;4.22;3.83;;;25.60;67.60;;;;;;5096589;28;20021;-85
2021/06/28 07:06:46;;;;;;;4.93;3.53;;;25.70;67.60;;;;;;5095403;28;20029;-85
2021/06/28 07:09:11;;;;;;;4.57;3.85;;;25.80;67.60;;;;;;5095522;28;20469;-85
2021/06/28 07:11:37;;;;;;;5.70;4.43;;;25.90;67.40;;;;;;5095946;28;20120;-86
2021/06/28 07:14:03;;;;;;;5.63;4.20;;;25.70;66.50;;;;;;5097482;28;20027;-85
2021/06/28 07:16:31;;;;;;;5.22;3.80;;;25.60;67.00;;;;;;5096741;28;20024;-86
2021/06/28 07:18:58;;;;;;;4.53;3.70;;;25.60;67.20;;;;;;5096148;28;20051;-85
2021/06/28 07:21:25;;;;;;;5.40;4.00;;;25.80;67.60;;;;;;5094538;28;20415;-84
2021/06/28 07:23:52;;;;;;;4.65;3.95;;;26.00;67.20;;;;;;5115210;28;20073;-84
2021/06/28 07:26:24;;;;;;;5.47;4.28;;;26.10;66.80;;;;;;5116543;28;20031;-84
2021/06/28 07:28:49;;;;;;;6.30;3.90;;;26.20;65.90;;;;;;5098514;28;20028;-85
2021/06/28 07:31:15;;;;;;;4.57;3.97;;;26.30;66.00;;;;;;5116678;28;20076;-85
2021/06/28 07:33:41;;;;;;;4.30;3.88;;;26.30;65.80;;;;;;5117068;28;20096;-84
2021/06/28 07:36:09;;;;;;;4.97;4.20;;;26.30;65.70;;;;;;5116600;28;20169;-83
2021/06/28 07:38:36;;;;;;;4.40;4.00;;;26.30;65.60;;;;;;5116616;28;20028;-84
2021/06/28 07:41:02;;;;;;;4.38;3.97;;;26.30;64.90;;;;;;5097933;28;20502;-84
2021/06/28 07:43:28;;;;;;;4.47;3.95;;;26.30;65.20;;;;;;5116035;28;20027;-84
2021/06/28 07:45:54;;;;;;;4.20;3.65;;;26.30;65.10;;;;;;5113212;28;20074;-85
2021/06/28 07:48:20;;;;;;;4.30;3.85;;;26.40;65.10;;;;;;5096068;28;20024;-84
2021/06/28 07:50:46;;;;;;;4.88;4.18;;;26.50;65.00;;;;;;5094586;28;20034;-85
2021/06/28 07:53:13;;;;;;;5.20;4.40;;;26.80;64.90;;;;;;5094590;28;20355;-86
2021/06/28 07:55:40;;;;;;;4.25;3.55;;;27.00;64.50;;;;;;5081634;28;20363;-85
2021/06/28 07:58:06;;;;;;;4.25;3.58;;;27.10;64.30;;;;;;5075353;28;20028;-85
2021/06/28 08:00:33;;;;;;;4.18;3.53;;;27.30;63.80;;;;;;5075399;28;20032;-85
2021/06/28 08:02:59;;;;;;;3.38;3.05;;;27.40;63.80;;;;;;5073847;28;20474;-85
2021/06/28 08:05:25;;;;;;;4.35;3.47;;;27.50;62.80;;;;;;5074098;28;20024;-86
2021/06/28 08:07:50;;;;;;;5.22;3.22;;;27.40;62.40;;;;;;5076974;28;20035;-85
2021/06/28 08:10:16;;;;;;;3.78;3.10;;;27.40;62.80;;;;;;5083902;28;20020;-84
2021/06/28 08:12:47;;;;;;;3.95;3.05;;;27.40;62.60;;;;;;5066789;28;20494;-83
2021/06/28 08:15:19;;;;;;;3.28;2.92;;;27.70;62.70;;;;;;5079488;28;20239;-84
2021/06/28 08:17:48;;;;;;;3.30;2.83;;;27.90;62.70;;;;;;5080806;28;20109;-83
2021/06/28 08:20:15;;;;;;;5.17;4.67;;;28.00;61.60;;;;;;5078738;28;20027;-88
2021/06/28 08:22:43;;;;;;;5.53;4.93;;;28.10;61.70;;;;;;5083165;28;20024;-85
2021/06/28 08:25:10;;;;;;;6.22;5.28;;;28.20;61.20;;;;;;5080682;28;20038;-85
2021/06/28 08:27:36;;;;;;;5.45;4.57;;;28.20;61.10;;;;;;5077097;28;20492;-88
2021/06/28 08:30:03;;;;;;;4.78;4.05;;;28.20;60.60;;;;;;5079737;28;20028;-85
2021/06/28 08:32:29;;;;;;;5.28;4.38;;;28.20;60.80;;;;;;5079943;28;20047;-86
2021/06/28 08:34:56;;;;;;;5.35;3.65;;;28.10;60.00;;;;;;5093319;28;20120;-89
2021/06/28 08:37:22;;;;;;;4.22;3.65;;;28.10;60.40;;;;;;5091376;28;20032;-91
2021/06/28 08:39:48;;;;;;;4.22;3.40;;;28.20;60.80;;;;;;5066613;28;20039;-88
2021/06/28 08:42:18;;;;;;;3.92;3.20;;;28.40;61.20;;;;;;5075571;28;20021;-89
2021/06/28 08:44:45;;;;;;;6.43;3.60;;;28.70;61.00;;;;;;5082084;28;20020;-87
2021/06/28 08:47:12;;;;;;;12.32;10.45;;;28.90;60.00;;;;;;5080166;28;20358;-83
2021/06/28 08:49:40;;;;;;;10.68;6.72;;;29.20;59.90;;;;;;5080146;28;20448;-84
2021/06/28 08:52:07;;;;;;;7.43;6.40;;;29.50;58.40;;;;;;5082239;28;20028;-87
2021/06/28 08:54:33;;;;;;;5.40;4.90;;;29.60;58.60;;;;;;5079086;28;20036;-87
2021/06/28 08:56:59;;;;;;;5.20;4.47;;;29.80;59.30;;;;;;5078791;28;20036;-85
2021/06/28 08:59:25;;;;;;;5.45;4.43;;;30.30;58.70;;;;;;5079450;28;20016;-84
2021/06/28 09:01:51;;;;;;;4.40;4.00;;;30.70;58.10;;;;;;5078078;28;20050;-86
2021/06/28 09:04:21;;;;;;;5.85;3.50;;;31.00;57.70;;;;;;5081789;28;20027;-85
2021/06/28 09:06:47;;;;;;;4.40;3.70;;;31.40;57.20;;;;;;5079033;28;20024;-88
2021/06/28 09:09:18;;;;;;;5.60;3.85;;;31.50;53.90;;;;;;5078699;28;20060;-88
2021/06/28 09:11:48;;;;;;;21.55;19.52;;;31.30;53.60;;;;;;5089821;28;20020;-90
2021/06/28 09:14:16;;;;;;;14.57;13.15;;;31.10;54.30;;;;;;5081858;28;20024;-89
2021/06/28 09:16:44;;;;;;;8.45;7.65;;;31.10;54.60;;;;;;5079942;28;20032;-88
2021/06/28 09:19:21;;;;;;;6.38;5.57;;;31.20;53.90;;;;;;5078101;28;20048;-87
2021/06/28 09:21:53;;;;;;;5.80;4.72;;;30.90;52.10;;;;;;5083669;28;20390;-86
2021/06/28 09:24:29;;;;;;;4.78;4.28;;;30.60;52.80;;;;;;5082735;28;20024;-87
2021/06/28 09:27:17;;;;;;;4.95;4.30;;;30.10;53.00;;;;;;5081259;28;20039;-87
2021/06/28 09:29:47;;;;;;;5.82;3.78;;;29.60;52.30;;;;;;5088689;28;20514;-84
2021/06/28 09:32:48;;;;;;;5.30;4.50;;;29.50;55.40;;;;;;5087524;28;20027;-85
2021/06/28 09:35:33;;;;;;;5.78;4.65;;;30.00;56.40;;;;;;5073743;28;20036;-85
2021/06/28 09:38:07;;;;;;;5.18;4.38;;;30.70;53.80;;;;;;5088680;28;20024;-87
2021/06/28 09:40:37;;;;;;;39.38;32.90;;;30.80;53.40;;;;;;5085004;28;20563;-88
2021/06/28 09:43:23;;;;;;;119.65;99.40;;;30.70;53.10;;;;;;5083840;28;20707;-88
2021/06/28 09:45:51;;;;;;;54.25;47.17;;;30.30;51.20;;;;;;5079607;28;20036;-90
2021/06/28 09:48:27;;;;;;;26.27;23.45;;;30.00;53.00;;;;;;5082032;28;20048;-88
2021/06/28 09:51:24;;;;;;;14.30;12.80;;;30.10;54.10;;;;;;5082648;28;20035;-88
2021/06/28 09:54:14;;;;;;;8.77;7.25;;;30.50;52.50;;;;;;5080355;28;20020;-88
2021/06/28 09:56:46;;;;;;;5.88;4.85;;;31.00;54.80;;;;;;5069792;28;20070;-88
2021/06/28 09:59:35;;;;;;;4.35;3.75;;;31.60;54.10;;;;;;5079347;28;20087;-88
2021/06/28 10:02:21;;;;;;;3.80;3.40;;;32.00;51.80;;;;;;5103301;28;20028;-88
2021/06/28 10:07:57;;;;;;;6.68;5.95;;;31.40;51.50;;;;;;5081570;28;20486;-87
2021/06/28 10:10:26;;;;;;;;;;;31.20;52.00;;;;;;4989675;28;20076;-89
2021/06/28 10:13:03;;;;;;;4.67;4.23;;;31.10;49.90;;;;;;5030945;28;19911;-90
2021/06/28 10:15:41;;;;;;;4.00;3.60;;;31.30;52.40;;;;;;5077370;28;20032;-89
2021/06/28 10:18:10;;;;;;;4.18;3.38;;;31.40;50.10;;;;;;5072990;28;20060;-88
2021/06/28 10:20:47;;;;;;;6.25;3.00;;;31.50;52.10;;;;;;5071607;28;20016;-85
2021/06/28 10:23:12;;;;;;;4.43;3.00;;;31.50;51.40;;;;;;5072967;28;20078;-89
2021/06/28 10:25:50;;;;;;;4.53;3.63;;;31.40;51.40;;;;;;5072776;28;20104;-88
2021/06/28 10:28:27;;;;;;;5.45;4.00;;;31.70;51.80;;;;;;5074196;28;20032;-87
2021/06/28 10:30:54;;;;;;;4.75;3.72;;;31.90;50.50;;;;;;5076892;28;20065;-88
2021/06/28 10:33:28;;;;;;;3.63;3.33;;;32.10;50.30;;;;;;5077015;28;20426;-87
2021/06/28 10:36:04;;;;;;;3.97;3.50;;;32.30;50.30;;;;;;5075800;28;20032;-86
2021/06/28 10:38:51;;;;;;;5.82;5.20;;;32.70;49.20;;;;;;5075550;28;20031;-89
2021/06/28 10:41:39;;;;;;;4.32;3.78;;;33.20;47.50;;;;;;5076897;28;20066;-91
2021/06/28 10:44:14;;;;;;;3.50;3.20;;;33.50;46.80;;;;;;5078443;28;20028;-89
2021/06/28 10:46:42;;;;;;;3.00;2.70;;;33.60;46.70;;;;;;5075626;28;20102;-88
2021/06/28 10:49:10;;;;;;;2.63;2.43;;;33.60;47.90;;;;;;5075667;28;20135;-89
2021/06/28 10:51:41;;;;;;;4.13;3.67;;;33.70;47.80;;;;;;5058103;28;20033;-90
2021/06/28 10:54:11;;;;;;;4.10;3.70;;;33.80;47.10;;;;;;5076041;28;20504;-88
2021/06/28 10:56:37;;;;;;;3.90;3.25;;;34.00;48.00;;;;;;5075574;28;20035;-86
2021/06/28 10:59:19;;;;;;;2.97;2.70;;;34.10;46.00;;;;;;5076785;28;20025;-87
2021/06/28 11:02:17;;;;;;;3.42;3.13;;;33.70;45.70;;;;;;5075138;28;20031;-88
2021/06/28 11:04:57;;;;;;;3.50;3.20;;;33.20;46.20;;;;;;5059125;28;20020;-89
2021/06/28 11:07:45;;;;;;;4.07;3.20;;;32.60;46.70;;;;;;5076022;28;20098;-87
2021/06/28 11:17:06;;;;;;;2.55;2.35;;;33.50;45.60;;;;;;5009462;28;20085;-89
2021/06/28 11:22:59;;;;;;;2.60;2.40;;;32.70;45.80;;;;;;5067893;28;20024;-85
2021/06/28 11:25:40;;;;;;;2.70;2.50;;;32.50;47.30;;;;;;5079258;28;20024;-87
2021/06/28 11:28:25;;;;;;;2.55;2.33;;;33.10;47.30;;;;;;5071375;28;20412;-87
2021/06/28 11:31:07;;;;;;;2.60;2.30;;;33.80;45.30;;;;;;5077193;28;20063;-87
2021/06/28 11:33:44;;;;;;;2.42;2.22;;;34.30;44.90;;;;;;5075866;28;20143;-87
2021/06/28 11:36:22;;;;;;;2.97;2.10;;;34.00;44.00;;;;;;5074785;28;20123;-87
2021/06/28 11:38:50;;;;;;;3.47;2.35;;;33.40;44.30;;;;;;5091939;28;20043;-87
2021/06/28 11:41:41;;;;;;;2.75;2.30;;;32.90;45.60;;;;;;5092308;28;20489;-86
2021/06/28 11:44:29;;;;;;;7.15;6.43;;;32.80;46.50;;;;;;5093019;28;20386;-88
2021/06/28 11:46:56;;;;;;;12.90;11.57;;;33.40;44.70;;;;;;5105622;28;20055;-88
2021/06/28 11:49:45;;;;;;;8.20;7.40;;;34.00;46.60;;;;;;5114680;28;20066;-88
2021/06/28 11:52:18;;;;;;;5.83;4.57;;;34.60;43.20;;;;;;5111642;28;20049;-87
2021/06/28 11:55:12;;;;;;;3.95;3.55;;;34.90;45.10;;;;;;5093522;28;20260;-88
2021/06/28 11:57:38;;;;;;;3.20;2.90;;;35.40;43.80;;;;;;5094440;28;20495;-88
2021/06/28 12:00:42;;;;;;;2.47;2.28;;;35.70;43.80;;;;;;5078711;28;20040;-88
2021/06/28 12:03:36;;;;;;;3.60;2.40;;;36.10;40.80;;;;;;5073910;28;20067;-88
2021/06/28 12:06:32;;;;;;;2.42;2.20;;;36.10;42.60;;;;;;5074991;28;20028;-91
2021/06/28 12:09:19;;;;;;;4.05;2.55;;;36.30;42.80;;;;;;5112762;28;20434;-90
2021/06/28 12:12:24;;;;;;;;;;;;;;;;;;;;;
2021/06/28 12:14:58;;;;;;;2.65;2.45;;;36.80;40.10;;;;;;5097818;28;20125;-88
2021/06/28 12:17:30;;;;;;;3.60;2.67;;;37.20;41.80;;;;;;5096016;28;20038;-89
2021/06/28 12:21:08;;;;;;;;;;;;;;;;;;;;;
2021/06/28 12:23:20;;;;;;;3.25;2.55;;;38.00;40.30;;;;;;5099966;28;20050;-90
2021/06/28 12:25:54;;;;;;;2.45;2.25;;;37.30;39.40;;;;;;5098352;28;20126;-90
2021/06/28 12:28:39;;;;;;;3.13;2.72;;;36.40;40.70;;;;;;5111094;28;20043;-87
2021/06/28 12:31:15;;;;;;;2.53;2.30;;;35.60;42.00;;;;;;5095566;28;20077;-87
2021/06/28 12:33:42;;;;;;;3.00;2.50;;;35.50;40.90;;;;;;5095000;28;20023;-86
2021/06/28 12:36:09;;;;;;;2.97;2.42;;;35.10;42.10;;;;;;5077969;28;20430;-88
2021/06/28 12:38:36;;;;;;;4.90;3.65;;;34.60;42.30;;;;;;5077591;28;20484;-89
2021/06/28 12:41:36;;;;;;;3.40;2.67;;;34.00;42.90;;;;;;5095077;28;20026;-88
2021/06/28 12:48:15;;;;;;;11.27;10.15;;;32.80;44.60;;;;;;5077776;28;20055;-93
2021/06/28 12:50:41;;;;;;;5.10;4.60;;;32.80;45.90;;;;;;5089345;28;20020;-89
2021/06/28 12:53:18;;;;;;;3.78;3.47;;;33.40;45.40;;;;;;5090791;28;20016;-87
2021/06/28 12:55:48;;;;;;;3.35;3.05;;;33.80;44.60;;;;;;5079770;28;20508;-88
2021/06/28 12:58:21;;;;;;;3.63;3.13;;;34.20;45.10;;;;;;5080099;28;20020;-88
2021/06/28 13:00:58;;;;;;;3.00;2.70;;;34.80;42.60;;;;;;5090963;28;20035;-88
2021/06/28 13:03:29;;;;;;;2.80;2.38;;;35.30;43.70;;;;;;5091162;28;20016;-88
2021/06/28 13:06:13;;;;;;;2.40;2.20;;;35.90;42.70;;;;;;5090316;28;20036;-88
2021/06/28 13:08:45;;;;;;;9.32;8.15;;;35.80;40.90;;;;;;5090507;28;20028;-89
2021/06/28 13:11:57;;;;;;;94.38;85.88;;;35.30;42.00;;;;;;5091015;28;20038;-89
2021/06/28 13:14:38;;;;;;;31.90;28.88;;;34.50;41.60;;;;;;5091893;28;20118;-90
2021/06/28 13:17:31;;;;;;;14.18;12.88;;;34.10;42.90;;;;;;5089906;28;20072;-88
2021/06/28 13:19:59;;;;;;;10.20;9.25;;;34.30;42.90;;;;;;5076707;28;20665;-89